sensor_id;sensor_type;location;lat;lon;timestamp;P1;durP1;ratioP1;P2;durP2;ratioP2
23812;SDS011;12087;45.190;5.688;2023-02-28T00:00:33;11.07;;;7.90;;
23812;SDS011;12087;45.190;5.688;2023-02-28T00:05:56;9.38;;;7.65;;
23812;SDS011;12087;45.190;5.688;2023-02-28T00:11:20;9.13;;;7.65;;
23812;SDS011;12087;45.190;5.688;2023-02-28T00:16:42;11.88;;;8.18;;
23812;SDS011;12087;45.190;5.688;2023-02-28T00:22:04;13.65;;;8.68;;
23812;SDS011;12087;45.190;5.688;2023-02-28T00:27:28;11.60;;;8.68;;
23812;SDS011;12087;45.190;5.688;2023-02-28T00:32:50;11.18;;;8.45;;
23812;SDS011;12087;45.190;5.688;2023-02-28T00:38:13;14.88;;;10.05;;
23812;SDS011;12087;45.190;5.688;2023-02-28T00:43:37;11.25;;;9.60;;
23812;SDS011;12087;45.190;5.688;2023-02-28T00:49:00;13.98;;;9.82;;
23812;SDS011;12087;45.190;5.688;2023-02-28T00:54:22;12.40;;;8.98;;
23812;SDS011;12087;45.190;5.688;2023-02-28T00:59:47;11.20;;;9.05;;
23812;SDS011;12087;45.190;5.688;2023-02-28T01:05:09;11.45;;;9.63;;
23812;SDS011;12087;45.190;5.688;2023-02-28T01:10:32;14.15;;;9.70;;
23812;SDS011;12087;45.190;5.688;2023-02-28T01:15:58;10.20;;;9.10;;
23812;SDS011;12087;45.190;5.688;2023-02-28T01:21:21;10.70;;;9.18;;
23812;SDS011;12087;45.190;5.688;2023-02-28T01:26:43;13.40;;;11.00;;
23812;SDS011;12087;45.190;5.688;2023-02-28T01:32:07;11.15;;;9.95;;
23812;SDS011;12087;45.190;5.688;2023-02-28T01:37:29;15.82;;;9.95;;
23812;SDS011;12087;45.190;5.688;2023-02-28T01:42:51;11.52;;;10.32;;
23812;SDS011;12087;45.190;5.688;2023-02-28T01:48:15;12.57;;;10.60;;
23812;SDS011;12087;45.190;5.688;2023-02-28T01:53:38;12.15;;;10.57;;
23812;SDS011;12087;45.190;5.688;2023-02-28T01:59:05;16.27;;;10.30;;
23812;SDS011;12087;45.190;5.688;2023-02-28T02:04:31;12.18;;;10.60;;
23812;SDS011;12087;45.190;5.688;2023-02-28T02:09:59;12.38;;;10.35;;
23812;SDS011;12087;45.190;5.688;2023-02-28T02:15:26;14.60;;;11.13;;
23812;SDS011;12087;45.190;5.688;2023-02-28T02:27:06;13.65;;;10.38;;
23812;SDS011;12087;45.190;5.688;2023-02-28T02:38:49;13.75;;;11.05;;
23812;SDS011;12087;45.190;5.688;2023-02-28T02:44:15;14.05;;;10.65;;
23812;SDS011;12087;45.190;5.688;2023-02-28T02:49:43;13.80;;;11.00;;
23812;SDS011;12087;45.190;5.688;2023-02-28T02:55:11;13.32;;;11.23;;
23812;SDS011;12087;45.190;5.688;2023-02-28T03:00:35;15.90;;;11.55;;
23812;SDS011;12087;45.190;5.688;2023-02-28T03:06:01;12.88;;;11.55;;
23812;SDS011;12087;45.190;5.688;2023-02-28T03:11:25;15.77;;;10.77;;
23812;SDS011;12087;45.190;5.688;2023-02-28T03:16:51;14.55;;;11.05;;
23812;SDS011;12087;45.190;5.688;2023-02-28T03:22:33;15.30;;;12.07;;
23812;SDS011;12087;45.190;5.688;2023-02-28T03:28:12;16.15;;;12.35;;
23812;SDS011;12087;45.190;5.688;2023-02-28T03:33:39;15.00;;;12.00;;
23812;SDS011;12087;45.190;5.688;2023-02-28T03:39:04;13.55;;;11.43;;
23812;SDS011;12087;45.190;5.688;2023-02-28T03:44:32;12.73;;;10.98;;
23812;SDS011;12087;45.190;5.688;2023-02-28T03:55:24;15.18;;;12.27;;
23812;SDS011;12087;45.190;5.688;2023-02-28T04:00:51;15.82;;;12.98;;
23812;SDS011;12087;45.190;5.688;2023-02-28T04:06:20;14.43;;;11.95;;
23812;SDS011;12087;45.190;5.688;2023-02-28T04:11:44;15.95;;;12.68;;
23812;SDS011;12087;45.190;5.688;2023-02-28T04:17:10;16.23;;;11.88;;
23812;SDS011;12087;45.190;5.688;2023-02-28T04:27:54;14.68;;;12.10;;
23812;SDS011;12087;45.190;5.688;2023-02-28T04:33:18;19.80;;;14.88;;
23812;SDS011;12087;45.190;5.688;2023-02-28T04:38:40;17.42;;;12.90;;
23812;SDS011;12087;45.190;5.688;2023-02-28T04:44:02;15.57;;;12.13;;
23812;SDS011;12087;45.190;5.688;2023-02-28T04:49:26;14.48;;;12.18;;
23812;SDS011;12087;45.190;5.688;2023-02-28T04:54:49;14.73;;;11.95;;
23812;SDS011;12087;45.190;5.688;2023-02-28T05:00:11;14.32;;;12.48;;
23812;SDS011;12087;45.190;5.688;2023-02-28T05:05:38;17.23;;;13.25;;
23812;SDS011;12087;45.190;5.688;2023-02-28T05:11:00;16.40;;;11.90;;
23812;SDS011;12087;45.190;5.688;2023-02-28T05:16:23;18.08;;;12.57;;
23812;SDS011;12087;45.190;5.688;2023-02-28T05:21:51;14.77;;;12.05;;
23812;SDS011;12087;45.190;5.688;2023-02-28T05:27:14;15.23;;;12.07;;
23812;SDS011;12087;45.190;5.688;2023-02-28T05:32:36;14.55;;;12.05;;
23812;SDS011;12087;45.190;5.688;2023-02-28T05:38:00;15.32;;;12.88;;
23812;SDS011;12087;45.190;5.688;2023-02-28T05:43:23;12.50;;;11.20;;
23812;SDS011;12087;45.190;5.688;2023-02-28T05:48:46;17.70;;;13.18;;
23812;SDS011;12087;45.190;5.688;2023-02-28T05:54:10;17.42;;;11.35;;
23812;SDS011;12087;45.190;5.688;2023-02-28T05:59:32;15.23;;;12.57;;
23812;SDS011;12087;45.190;5.688;2023-02-28T06:04:55;17.15;;;13.32;;
23812;SDS011;12087;45.190;5.688;2023-02-28T06:10:19;18.05;;;13.23;;
23812;SDS011;12087;45.190;5.688;2023-02-28T06:15:41;17.35;;;13.65;;
23812;SDS011;12087;45.190;5.688;2023-02-28T06:21:03;18.80;;;13.07;;
23812;SDS011;12087;45.190;5.688;2023-02-28T06:26:27;15.23;;;13.02;;
23812;SDS011;12087;45.190;5.688;2023-02-28T06:31:50;18.42;;;13.07;;
23812;SDS011;12087;45.190;5.688;2023-02-28T06:37:12;17.00;;;12.23;;
23812;SDS011;12087;45.190;5.688;2023-02-28T06:42:36;16.45;;;12.32;;
23812;SDS011;12087;45.190;5.688;2023-02-28T06:47:58;16.35;;;11.65;;
23812;SDS011;12087;45.190;5.688;2023-02-28T06:53:21;15.32;;;12.68;;
23812;SDS011;12087;45.190;5.688;2023-02-28T06:58:47;17.48;;;13.10;;
23812;SDS011;12087;45.190;5.688;2023-02-28T07:04:09;14.95;;;12.70;;
23812;SDS011;12087;45.190;5.688;2023-02-28T07:09:33;22.80;;;14.13;;
23812;SDS011;12087;45.190;5.688;2023-02-28T07:14:57;25.38;;;11.95;;
23812;SDS011;12087;45.190;5.688;2023-02-28T07:20:19;22.15;;;11.95;;
23812;SDS011;12087;45.190;5.688;2023-02-28T07:25:41;19.83;;;12.68;;
23812;SDS011;12087;45.190;5.688;2023-02-28T07:31:05;19.38;;;12.93;;
23812;SDS011;12087;45.190;5.688;2023-02-28T07:36:28;24.33;;;13.68;;
23812;SDS011;12087;45.190;5.688;2023-02-28T07:41:50;17.00;;;13.13;;
23812;SDS011;12087;45.190;5.688;2023-02-28T07:47:14;20.75;;;13.38;;
23812;SDS011;12087;45.190;5.688;2023-02-28T07:52:36;23.63;;;13.95;;
23812;SDS011;12087;45.190;5.688;2023-02-28T07:58:00;15.63;;;12.15;;
23812;SDS011;12087;45.190;5.688;2023-02-28T08:03:23;17.55;;;12.52;;
23812;SDS011;12087;45.190;5.688;2023-02-28T08:08:46;25.38;;;12.32;;
23812;SDS011;12087;45.190;5.688;2023-02-28T08:14:08;14.40;;;12.30;;
23812;SDS011;12087;45.190;5.688;2023-02-28T08:19:32;18.30;;;12.63;;
23812;SDS011;12087;45.190;5.688;2023-02-28T08:24:54;15.63;;;13.02;;
23812;SDS011;12087;45.190;5.688;2023-02-28T08:30:17;14.95;;;12.25;;
23812;SDS011;12087;45.190;5.688;2023-02-28T08:35:40;15.85;;;12.80;;
23812;SDS011;12087;45.190;5.688;2023-02-28T08:41:03;18.02;;;11.90;;
23812;SDS011;12087;45.190;5.688;2023-02-28T08:46:27;15.40;;;12.10;;
23812;SDS011;12087;45.190;5.688;2023-02-28T08:51:51;15.80;;;12.50;;
23812;SDS011;12087;45.190;5.688;2023-02-28T08:57:14;16.80;;;12.55;;
23812;SDS011;12087;45.190;5.688;2023-02-28T09:02:36;16.98;;;13.15;;
23812;SDS011;12087;45.190;5.688;2023-02-28T09:08:01;16.00;;;13.50;;
23812;SDS011;12087;45.190;5.688;2023-02-28T09:13:23;24.33;;;14.05;;
23812;SDS011;12087;45.190;5.688;2023-02-28T09:18:46;22.67;;;15.52;;
23812;SDS011;12087;45.190;5.688;2023-02-28T09:24:10;19.25;;;13.38;;
23812;SDS011;12087;45.190;5.688;2023-02-28T09:29:34;16.00;;;13.85;;
23812;SDS011;12087;45.190;5.688;2023-02-28T09:34:56;18.20;;;13.23;;
23812;SDS011;12087;45.190;5.688;2023-02-28T09:40:20;16.85;;;13.43;;
23812;SDS011;12087;45.190;5.688;2023-02-28T09:45:47;25.02;;;14.73;;
23812;SDS011;12087;45.190;5.688;2023-02-28T09:51:13;19.10;;;13.50;;
23812;SDS011;12087;45.190;5.688;2023-02-28T09:56:50;18.90;;;14.38;;
23812;SDS011;12087;45.190;5.688;2023-02-28T10:02:20;22.02;;;16.48;;
23812;SDS011;12087;45.190;5.688;2023-02-28T10:08:00;15.35;;;13.27;;
23812;SDS011;12087;45.190;5.688;2023-02-28T10:13:32;16.92;;;14.30;;
23812;SDS011;12087;45.190;5.688;2023-02-28T10:18:57;18.70;;;14.10;;
23812;SDS011;12087;45.190;5.688;2023-02-28T10:24:26;20.05;;;14.65;;
23812;SDS011;12087;45.190;5.688;2023-02-28T10:29:53;18.70;;;14.63;;
23812;SDS011;12087;45.190;5.688;2023-02-28T10:35:18;17.63;;;14.63;;
23812;SDS011;12087;45.190;5.688;2023-02-28T10:40:42;19.20;;;14.90;;
23812;SDS011;12087;45.190;5.688;2023-02-28T10:46:10;18.77;;;14.60;;
23812;SDS011;12087;45.190;5.688;2023-02-28T10:51:45;20.25;;;14.88;;
23812;SDS011;12087;45.190;5.688;2023-02-28T15:52:42;20.88;;;13.63;;
23812;SDS011;12087;45.190;5.688;2023-02-28T15:58:05;16.25;;;13.65;;
23812;SDS011;12087;45.190;5.688;2023-02-28T16:03:35;19.83;;;14.57;;
23812;SDS011;12087;45.190;5.688;2023-02-28T16:09:03;19.90;;;13.52;;
23812;SDS011;12087;45.190;5.688;2023-02-28T16:14:28;16.15;;;13.63;;
23812;SDS011;12087;45.190;5.688;2023-02-28T16:19:52;22.65;;;14.35;;
23812;SDS011;12087;45.190;5.688;2023-02-28T16:25:17;19.83;;;15.20;;
23812;SDS011;12087;45.190;5.688;2023-02-28T16:30:40;19.02;;;15.70;;
23812;SDS011;12087;45.190;5.688;2023-02-28T16:36:03;21.23;;;14.88;;
23812;SDS011;12087;45.190;5.688;2023-02-28T16:41:29;17.77;;;13.68;;
23812;SDS011;12087;45.190;5.688;2023-02-28T16:46:51;17.35;;;14.18;;
23812;SDS011;12087;45.190;5.688;2023-02-28T16:52:14;17.70;;;13.20;;
23812;SDS011;12087;45.190;5.688;2023-02-28T16:57:37;20.95;;;14.07;;
23812;SDS011;12087;45.190;5.688;2023-02-28T17:03:00;21.88;;;16.50;;
23812;SDS011;12087;45.190;5.688;2023-02-28T17:08:23;21.75;;;14.30;;
23812;SDS011;12087;45.190;5.688;2023-02-28T17:13:47;19.20;;;13.95;;
23812;SDS011;12087;45.190;5.688;2023-02-28T17:19:11;17.02;;;13.00;;
23812;SDS011;12087;45.190;5.688;2023-02-28T17:24:35;26.67;;;14.05;;
23812;SDS011;12087;45.190;5.688;2023-02-28T17:29:59;21.90;;;14.68;;
23812;SDS011;12087;45.190;5.688;2023-02-28T17:35:21;16.88;;;13.10;;
23812;SDS011;12087;45.190;5.688;2023-02-28T17:40:44;19.08;;;14.00;;
23812;SDS011;12087;45.190;5.688;2023-02-28T17:46:08;17.27;;;13.40;;
23812;SDS011;12087;45.190;5.688;2023-02-28T17:51:38;25.90;;;13.45;;
23812;SDS011;12087;45.190;5.688;2023-02-28T17:57:00;20.60;;;13.90;;
23812;SDS011;12087;45.190;5.688;2023-02-28T18:02:24;18.35;;;13.52;;
23812;SDS011;12087;45.190;5.688;2023-02-28T18:07:47;17.05;;;14.05;;
23812;SDS011;12087;45.190;5.688;2023-02-28T18:13:09;21.65;;;13.73;;
23812;SDS011;12087;45.190;5.688;2023-02-28T18:18:34;21.17;;;13.95;;
23812;SDS011;12087;45.190;5.688;2023-02-28T18:23:57;19.33;;;14.48;;
23812;SDS011;12087;45.190;5.688;2023-02-28T18:29:20;17.80;;;13.95;;
23812;SDS011;12087;45.190;5.688;2023-02-28T18:34:45;18.10;;;14.10;;
23812;SDS011;12087;45.190;5.688;2023-02-28T18:40:07;17.00;;;13.90;;
23812;SDS011;12087;45.190;5.688;2023-02-28T18:45:31;19.92;;;13.05;;
23812;SDS011;12087;45.190;5.688;2023-02-28T18:50:58;20.88;;;13.57;;
23812;SDS011;12087;45.190;5.688;2023-02-28T18:56:25;18.50;;;12.48;;
23812;SDS011;12087;45.190;5.688;2023-02-28T19:01:48;16.48;;;13.43;;
23812;SDS011;12087;45.190;5.688;2023-02-28T19:07:11;18.95;;;12.50;;
23812;SDS011;12087;45.190;5.688;2023-02-28T19:12:34;29.75;;;19.23;;
23812;SDS011;12087;45.190;5.688;2023-02-28T19:17:56;15.98;;;12.55;;
23812;SDS011;12087;45.190;5.688;2023-02-28T19:23:20;24.60;;;14.13;;
23812;SDS011;12087;45.190;5.688;2023-02-28T19:28:42;19.00;;;13.85;;
23812;SDS011;12087;45.190;5.688;2023-02-28T19:34:04;16.27;;;13.48;;
23812;SDS011;12087;45.190;5.688;2023-02-28T19:39:28;22.67;;;16.75;;
23812;SDS011;12087;45.190;5.688;2023-02-28T19:45:00;17.17;;;13.93;;
23812;SDS011;12087;45.190;5.688;2023-02-28T19:50:23;21.17;;;13.60;;
23812;SDS011;12087;45.190;5.688;2023-02-28T19:55:47;17.38;;;13.38;;
23812;SDS011;12087;45.190;5.688;2023-02-28T20:01:11;16.33;;;13.00;;
23812;SDS011;12087;45.190;5.688;2023-02-28T20:06:34;16.40;;;12.98;;
23812;SDS011;12087;45.190;5.688;2023-02-28T20:11:59;17.35;;;12.77;;
23812;SDS011;12087;45.190;5.688;2023-02-28T20:17:22;14.05;;;11.43;;
23812;SDS011;12087;45.190;5.688;2023-02-28T20:22:44;15.30;;;13.02;;
23812;SDS011;12087;45.190;5.688;2023-02-28T20:28:08;14.75;;;12.70;;
23812;SDS011;12087;45.190;5.688;2023-02-28T20:33:30;15.23;;;12.60;;
23812;SDS011;12087;45.190;5.688;2023-02-28T20:38:52;16.23;;;12.80;;
23812;SDS011;12087;45.190;5.688;2023-02-28T20:44:16;21.70;;;13.60;;
23812;SDS011;12087;45.190;5.688;2023-02-28T20:49:38;15.82;;;13.07;;
23812;SDS011;12087;45.190;5.688;2023-02-28T20:55:01;17.10;;;13.35;;
23812;SDS011;12087;45.190;5.688;2023-02-28T21:00:25;17.95;;;13.05;;
23812;SDS011;12087;45.190;5.688;2023-02-28T21:05:47;20.25;;;13.05;;
23812;SDS011;12087;45.190;5.688;2023-02-28T21:11:09;16.20;;;13.18;;
23812;SDS011;12087;45.190;5.688;2023-02-28T21:16:35;17.02;;;13.00;;
23812;SDS011;12087;45.190;5.688;2023-02-28T21:21:57;14.80;;;12.93;;
23812;SDS011;12087;45.190;5.688;2023-02-28T21:27:19;19.20;;;13.40;;
23812;SDS011;12087;45.190;5.688;2023-02-28T21:32:43;18.40;;;12.85;;
23812;SDS011;12087;45.190;5.688;2023-02-28T21:38:05;16.63;;;13.10;;
23812;SDS011;12087;45.190;5.688;2023-02-28T21:43:27;18.00;;;14.23;;
23812;SDS011;12087;45.190;5.688;2023-02-28T21:48:51;16.48;;;13.55;;
23812;SDS011;12087;45.190;5.688;2023-02-28T21:54:13;17.13;;;13.63;;
23812;SDS011;12087;45.190;5.688;2023-02-28T21:59:36;17.67;;;13.77;;
23812;SDS011;12087;45.190;5.688;2023-02-28T22:04:59;17.73;;;13.18;;
23812;SDS011;12087;45.190;5.688;2023-02-28T22:10:22;17.10;;;14.20;;
23812;SDS011;12087;45.190;5.688;2023-02-28T22:15:45;18.83;;;13.90;;
23812;SDS011;12087;45.190;5.688;2023-02-28T22:21:09;15.75;;;13.98;;
23812;SDS011;12087;45.190;5.688;2023-02-28T22:26:32;15.73;;;13.98;;
23812;SDS011;12087;45.190;5.688;2023-02-28T22:31:55;19.05;;;14.13;;
23812;SDS011;12087;45.190;5.688;2023-02-28T22:37:18;20.95;;;14.75;;
23812;SDS011;12087;45.190;5.688;2023-02-28T22:42:41;20.25;;;14.15;;
23812;SDS011;12087;45.190;5.688;2023-02-28T22:48:03;17.77;;;14.55;;
23812;SDS011;12087;45.190;5.688;2023-02-28T22:53:29;17.38;;;13.50;;
23812;SDS011;12087;45.190;5.688;2023-02-28T22:58:53;17.27;;;13.88;;
23812;SDS011;12087;45.190;5.688;2023-02-28T23:04:16;19.55;;;15.10;;
23812;SDS011;12087;45.190;5.688;2023-02-28T23:09:40;17.33;;;13.15;;
23812;SDS011;12087;45.190;5.688;2023-02-28T23:15:03;18.33;;;14.20;;
23812;SDS011;12087;45.190;5.688;2023-02-28T23:20:26;17.33;;;14.27;;
23812;SDS011;12087;45.190;5.688;2023-02-28T23:25:50;19.27;;;14.75;;
23812;SDS011;12087;45.190;5.688;2023-02-28T23:31:12;18.58;;;14.77;;
23812;SDS011;12087;45.190;5.688;2023-02-28T23:36:36;22.15;;;16.92;;
23812;SDS011;12087;45.190;5.688;2023-02-28T23:42:00;22.63;;;15.25;;
23812;SDS011;12087;45.190;5.688;2023-02-28T23:47:22;19.55;;;15.77;;
23812;SDS011;12087;45.190;5.688;2023-02-28T23:52:45;28.27;;;16.52;;
23812;SDS011;12087;45.190;5.688;2023-02-28T23:58:08;24.52;;;16.65;;
